Terminal Aerodrome Forecast
Issued by NWS Dodge City, KS

Home | Current Version | Previous Version | Text Only | Print | Product List | Glossary On
Versions: 1 2 3 4 5 6 7 8 9 10 11 12 13 14 15 16 17 18 19 20 21 22 23 24 25 26 27 28 29 30 31 32 33 34 35 36 37 38 39 40 41 42 43 44 45
000
FTUS43 KDDC 260134 AAA
TAFDDC
TAF AMD
KDDC 260134Z 2602/2624 16012G20KT P6SM VCTS BKN090CB
     FM260300 16008KT P6SM BKN200
     FM261200 VRB06KT P6SM BKN200
     FM261700 16015G22KT P6SM SCT200=

USA.gov is the U.S. government's official web portal to all federal, state and local government web resources and services.